sensor_id;sensor_type;location;lat;lon;timestamp;temperature;humidity
34965;DHT22;66671;51.982;5.794;2023-01-10T00:00:38;8.00;81.20
34965;DHT22;66671;51.982;5.794;2023-01-10T00:03:07;8.10;81.40
34965;DHT22;66671;51.982;5.794;2023-01-10T00:05:35;8.10;81.30
34965;DHT22;66671;51.982;5.794;2023-01-10T00:08:02;8.10;81.30
34965;DHT22;66671;51.982;5.794;2023-01-10T00:10:30;8.10;81.30
34965;DHT22;66671;51.982;5.794;2023-01-10T00:12:57;8.20;81.30
34965;DHT22;66671;51.982;5.794;2023-01-10T00:15:43;8.20;81.30
34965;DHT22;66671;51.982;5.794;2023-01-10T00:18:10;8.20;81.20
34965;DHT22;66671;51.982;5.794;2023-01-10T00:20:37;8.20;81.10
34965;DHT22;66671;51.982;5.794;2023-01-10T00:23:04;8.30;81.10
34965;DHT22;66671;51.982;5.794;2023-01-10T00:25:31;8.20;81.00
34965;DHT22;66671;51.982;5.794;2023-01-10T00:28:02;8.20;80.90
34965;DHT22;66671;51.982;5.794;2023-01-10T00:30:52;8.20;80.80
34965;DHT22;66671;51.982;5.794;2023-01-10T00:33:33;8.10;80.80
34965;DHT22;66671;51.982;5.794;2023-01-10T00:36:02;8.10;80.80
34965;DHT22;66671;51.982;5.794;2023-01-10T00:38:30;8.10;80.80
34965;DHT22;66671;51.982;5.794;2023-01-10T00:40:58;8.00;80.80
34965;DHT22;66671;51.982;5.794;2023-01-10T00:43:25;7.90;80.70
34965;DHT22;66671;51.982;5.794;2023-01-10T00:46:11;7.90;80.80
34965;DHT22;66671;51.982;5.794;2023-01-10T00:48:38;7.80;80.80
34965;DHT22;66671;51.982;5.794;2023-01-10T00:51:05;7.80;80.90
34965;DHT22;66671;51.982;5.794;2023-01-10T00:53:31;7.70;80.90
34965;DHT22;66671;51.982;5.794;2023-01-10T00:55:58;7.70;80.90
34965;DHT22;66671;51.982;5.794;2023-01-10T00:58:25;7.60;81.50
34965;DHT22;66671;51.982;5.794;2023-01-10T01:00:52;7.60;81.00
34965;DHT22;66671;51.982;5.794;2023-01-10T01:03:20;7.60;81.60
34965;DHT22;66671;51.982;5.794;2023-01-10T01:05:49;7.60;81.10
34965;DHT22;66671;51.982;5.794;2023-01-10T01:08:17;7.60;81.20
34965;DHT22;66671;51.982;5.794;2023-01-10T01:10:45;7.70;81.30
34965;DHT22;66671;51.982;5.794;2023-01-10T01:13:15;7.70;81.30
34965;DHT22;66671;51.982;5.794;2023-01-10T01:15:42;7.70;81.10
34965;DHT22;66671;51.982;5.794;2023-01-10T01:18:14;7.80;81.00
34965;DHT22;66671;51.982;5.794;2023-01-10T01:20:41;7.80;80.90
34965;DHT22;66671;51.982;5.794;2023-01-10T01:23:08;7.80;80.90
34965;DHT22;66671;51.982;5.794;2023-01-10T01:25:35;7.80;80.90
34965;DHT22;66671;51.982;5.794;2023-01-10T01:28:02;7.80;80.90
34965;DHT22;66671;51.982;5.794;2023-01-10T01:30:29;7.90;80.90
34965;DHT22;66671;51.982;5.794;2023-01-10T01:32:56;7.90;80.80
34965;DHT22;66671;51.982;5.794;2023-01-10T01:35:23;8.00;80.90
34965;DHT22;66671;51.982;5.794;2023-01-10T01:37:50;8.00;80.80
34965;DHT22;66671;51.982;5.794;2023-01-10T01:40:19;8.10;80.80
34965;DHT22;66671;51.982;5.794;2023-01-10T01:42:47;8.00;80.50
34965;DHT22;66671;51.982;5.794;2023-01-10T01:47:55;8.00;80.60
34965;DHT22;66671;51.982;5.794;2023-01-10T01:53:12;8.00;80.50
34965;DHT22;66671;51.982;5.794;2023-01-10T01:55:41;8.00;80.40
34965;DHT22;66671;51.982;5.794;2023-01-10T01:58:18;8.00;80.40
34965;DHT22;66671;51.982;5.794;2023-01-10T02:00:45;7.90;80.30
34965;DHT22;66671;51.982;5.794;2023-01-10T02:03:13;7.80;80.30
34965;DHT22;66671;51.982;5.794;2023-01-10T02:05:41;7.80;80.40
34965;DHT22;66671;51.982;5.794;2023-01-10T02:08:10;7.80;80.50
34965;DHT22;66671;51.982;5.794;2023-01-10T02:10:45;7.80;80.50
34965;DHT22;66671;51.982;5.794;2023-01-10T02:13:20;7.80;80.50
34965;DHT22;66671;51.982;5.794;2023-01-10T02:15:48;7.70;80.50
34965;DHT22;66671;51.982;5.794;2023-01-10T02:18:16;7.70;80.60
34965;DHT22;66671;51.982;5.794;2023-01-10T02:21:18;7.70;80.60
34965;DHT22;66671;51.982;5.794;2023-01-10T02:46:37;8.10;80.40
34965;DHT22;66671;51.982;5.794;2023-01-10T02:49:05;8.10;80.40
34965;DHT22;66671;51.982;5.794;2023-01-10T02:51:31;8.20;80.50
34965;DHT22;66671;51.982;5.794;2023-01-10T03:07:42;8.20;80.50
34965;DHT22;66671;51.982;5.794;2023-01-10T03:10:20;8.20;80.50
34965;DHT22;66671;51.982;5.794;2023-01-10T03:13:01;8.20;80.40
34965;DHT22;66671;51.982;5.794;2023-01-10T03:15:34;8.20;80.40
34965;DHT22;66671;51.982;5.794;2023-01-10T03:18:07;8.20;80.50
34965;DHT22;66671;51.982;5.794;2023-01-10T03:20:36;8.20;80.50
34965;DHT22;66671;51.982;5.794;2023-01-10T03:23:05;8.30;80.60
34965;DHT22;66671;51.982;5.794;2023-01-10T03:25:35;8.30;80.50
34965;DHT22;66671;51.982;5.794;2023-01-10T03:28:15;8.30;80.50
34965;DHT22;66671;51.982;5.794;2023-01-10T03:30:43;8.30;80.50
34965;DHT22;66671;51.982;5.794;2023-01-10T03:33:14;8.30;80.50
34965;DHT22;66671;51.982;5.794;2023-01-10T03:36:03;8.30;80.40
34965;DHT22;66671;51.982;5.794;2023-01-10T03:41:47;8.30;80.50
34965;DHT22;66671;51.982;5.794;2023-01-10T03:44:34;8.20;80.40
34965;DHT22;66671;51.982;5.794;2023-01-10T03:50:02;8.30;80.50
34965;DHT22;66671;51.982;5.794;2023-01-10T03:52:32;8.20;80.50
34965;DHT22;66671;51.982;5.794;2023-01-10T03:55:00;8.30;80.60
34965;DHT22;66671;51.982;5.794;2023-01-10T03:57:28;8.30;80.60
34965;DHT22;66671;51.982;5.794;2023-01-10T03:59:57;8.30;80.60
34965;DHT22;66671;51.982;5.794;2023-01-10T04:02:29;8.30;81.10
34965;DHT22;66671;51.982;5.794;2023-01-10T04:04:56;8.30;80.60
34965;DHT22;66671;51.982;5.794;2023-01-10T04:07:25;8.40;80.60
34965;DHT22;66671;51.982;5.794;2023-01-10T04:09:52;8.40;80.60
34965;DHT22;66671;51.982;5.794;2023-01-10T04:12:19;8.40;80.50
34965;DHT22;66671;51.982;5.794;2023-01-10T04:14:45;8.40;80.40
34965;DHT22;66671;51.982;5.794;2023-01-10T04:17:14;8.40;80.40
34965;DHT22;66671;51.982;5.794;2023-01-10T04:19:41;8.40;80.50
34965;DHT22;66671;51.982;5.794;2023-01-10T04:22:08;8.40;80.50
34965;DHT22;66671;51.982;5.794;2023-01-10T04:24:35;8.40;80.50
34965;DHT22;66671;51.982;5.794;2023-01-10T04:27:02;8.40;80.50
34965;DHT22;66671;51.982;5.794;2023-01-10T04:29:29;8.40;80.50
34965;DHT22;66671;51.982;5.794;2023-01-10T04:31:56;8.40;80.50
34965;DHT22;66671;51.982;5.794;2023-01-10T04:34:23;8.40;80.50
34965;DHT22;66671;51.982;5.794;2023-01-10T04:36:50;8.40;80.50
34965;DHT22;66671;51.982;5.794;2023-01-10T04:39:17;8.40;80.50
34965;DHT22;66671;51.982;5.794;2023-01-10T04:41:44;8.30;80.40
34965;DHT22;66671;51.982;5.794;2023-01-10T04:44:11;8.30;80.50
34965;DHT22;66671;51.982;5.794;2023-01-10T04:46:38;8.30;80.60
34965;DHT22;66671;51.982;5.794;2023-01-10T04:49:05;8.30;80.60
34965;DHT22;66671;51.982;5.794;2023-01-10T04:51:32;8.30;80.60
34965;DHT22;66671;51.982;5.794;2023-01-10T04:53:59;8.30;80.60
34965;DHT22;66671;51.982;5.794;2023-01-10T04:56:26;8.30;80.60
34965;DHT22;66671;51.982;5.794;2023-01-10T04:58:53;8.30;80.70
34965;DHT22;66671;51.982;5.794;2023-01-10T05:01:22;8.30;80.60
34965;DHT22;66671;51.982;5.794;2023-01-10T05:03:51;8.30;80.70
34965;DHT22;66671;51.982;5.794;2023-01-10T05:06:19;8.30;80.70
34965;DHT22;66671;51.982;5.794;2023-01-10T05:08:46;8.40;80.70
34965;DHT22;66671;51.982;5.794;2023-01-10T05:11:13;8.40;81.00
34965;DHT22;66671;51.982;5.794;2023-01-10T05:13:40;8.40;80.60
34965;DHT22;66671;51.982;5.794;2023-01-10T05:16:07;8.40;80.60
34965;DHT22;66671;51.982;5.794;2023-01-10T05:18:34;8.40;80.70
34965;DHT22;66671;51.982;5.794;2023-01-10T05:21:05;8.40;80.70
34965;DHT22;66671;51.982;5.794;2023-01-10T05:23:33;8.40;80.70
34965;DHT22;66671;51.982;5.794;2023-01-10T05:26:15;8.40;80.60
34965;DHT22;66671;51.982;5.794;2023-01-10T05:28:42;8.40;80.70
34965;DHT22;66671;51.982;5.794;2023-01-10T05:31:12;8.50;80.60
34965;DHT22;66671;51.982;5.794;2023-01-10T05:33:43;8.50;80.60
34965;DHT22;66671;51.982;5.794;2023-01-10T05:36:11;8.50;80.50
34965;DHT22;66671;51.982;5.794;2023-01-10T05:38:38;8.50;80.40
34965;DHT22;66671;51.982;5.794;2023-01-10T05:41:05;8.40;80.40
34965;DHT22;66671;51.982;5.794;2023-01-10T05:43:32;8.40;80.40
34965;DHT22;66671;51.982;5.794;2023-01-10T05:45:58;8.40;80.50
34965;DHT22;66671;51.982;5.794;2023-01-10T05:48:25;8.40;80.40
34965;DHT22;66671;51.982;5.794;2023-01-10T05:50:52;8.40;80.50
34965;DHT22;66671;51.982;5.794;2023-01-10T05:53:20;8.40;80.50
34965;DHT22;66671;51.982;5.794;2023-01-10T05:55:58;8.40;80.50
34965;DHT22;66671;51.982;5.794;2023-01-10T05:58:26;8.30;80.50
34965;DHT22;66671;51.982;5.794;2023-01-10T06:00:54;8.30;80.70
34965;DHT22;66671;51.982;5.794;2023-01-10T06:03:21;8.40;80.70
34965;DHT22;66671;51.982;5.794;2023-01-10T06:05:48;8.40;81.20
34965;DHT22;66671;51.982;5.794;2023-01-10T06:08:16;8.40;80.60
34965;DHT22;66671;51.982;5.794;2023-01-10T06:10:43;8.40;80.60
34965;DHT22;66671;51.982;5.794;2023-01-10T06:13:10;8.40;80.50
34965;DHT22;66671;51.982;5.794;2023-01-10T06:15:37;8.50;80.50
34965;DHT22;66671;51.982;5.794;2023-01-10T06:18:05;8.40;80.40
34965;DHT22;66671;51.982;5.794;2023-01-10T06:20:32;8.40;80.30
34965;DHT22;66671;51.982;5.794;2023-01-10T06:22:59;8.40;80.40
34965;DHT22;66671;51.982;5.794;2023-01-10T06:25:31;8.40;80.40
34965;DHT22;66671;51.982;5.794;2023-01-10T06:27:58;8.40;80.50
34965;DHT22;66671;51.982;5.794;2023-01-10T06:30:24;8.40;80.50
34965;DHT22;66671;51.982;5.794;2023-01-10T06:32:51;8.40;80.50
34965;DHT22;66671;51.982;5.794;2023-01-10T06:35:18;8.40;80.50
34965;DHT22;66671;51.982;5.794;2023-01-10T06:37:45;8.40;80.40
34965;DHT22;66671;51.982;5.794;2023-01-10T06:40:12;8.40;80.30
34965;DHT22;66671;51.982;5.794;2023-01-10T06:42:39;8.40;80.40
34965;DHT22;66671;51.982;5.794;2023-01-10T06:45:07;8.40;80.40
34965;DHT22;66671;51.982;5.794;2023-01-10T06:47:34;8.40;80.40
34965;DHT22;66671;51.982;5.794;2023-01-10T06:50:01;8.30;80.40
34965;DHT22;66671;51.982;5.794;2023-01-10T06:52:27;8.40;80.40
34965;DHT22;66671;51.982;5.794;2023-01-10T06:54:54;8.40;80.40
34965;DHT22;66671;51.982;5.794;2023-01-10T06:57:21;8.40;80.40
34965;DHT22;66671;51.982;5.794;2023-01-10T06:59:48;8.40;80.40
34965;DHT22;66671;51.982;5.794;2023-01-10T07:02:15;8.40;80.30
34965;DHT22;66671;51.982;5.794;2023-01-10T07:04:42;8.40;80.40
34965;DHT22;66671;51.982;5.794;2023-01-10T07:07:08;8.40;80.30
34965;DHT22;66671;51.982;5.794;2023-01-10T07:09:35;8.40;80.20
34965;DHT22;66671;51.982;5.794;2023-01-10T07:12:02;8.40;80.30
34965;DHT22;66671;51.982;5.794;2023-01-10T07:14:29;8.50;80.30
34965;DHT22;66671;51.982;5.794;2023-01-10T07:16:56;8.40;80.30
34965;DHT22;66671;51.982;5.794;2023-01-10T07:19:22;8.40;80.20
34965;DHT22;66671;51.982;5.794;2023-01-10T07:21:49;8.50;80.20
34965;DHT22;66671;51.982;5.794;2023-01-10T07:24:16;8.50;80.20
34965;DHT22;66671;51.982;5.794;2023-01-10T07:26:43;8.50;80.30
34965;DHT22;66671;51.982;5.794;2023-01-10T07:29:10;8.50;80.20
34965;DHT22;66671;51.982;5.794;2023-01-10T07:31:36;8.50;80.20
34965;DHT22;66671;51.982;5.794;2023-01-10T07:34:03;8.50;80.10
34965;DHT22;66671;51.982;5.794;2023-01-10T07:36:30;8.50;80.10
34965;DHT22;66671;51.982;5.794;2023-01-10T07:38:57;8.50;80.10
34965;DHT22;66671;51.982;5.794;2023-01-10T07:41:24;8.50;80.00
34965;DHT22;66671;51.982;5.794;2023-01-10T07:43:51;8.50;79.90
34965;DHT22;66671;51.982;5.794;2023-01-10T07:46:17;8.40;79.80
34965;DHT22;66671;51.982;5.794;2023-01-10T07:48:44;8.40;79.80
34965;DHT22;66671;51.982;5.794;2023-01-10T07:51:12;8.30;79.90
34965;DHT22;66671;51.982;5.794;2023-01-10T07:53:39;8.40;80.10
34965;DHT22;66671;51.982;5.794;2023-01-10T07:56:06;8.40;80.10
34965;DHT22;66671;51.982;5.794;2023-01-10T07:58:33;8.40;80.10
34965;DHT22;66671;51.982;5.794;2023-01-10T08:01:01;8.40;80.10
34965;DHT22;66671;51.982;5.794;2023-01-10T08:03:29;8.50;80.10
34965;DHT22;66671;51.982;5.794;2023-01-10T08:06:01;8.50;80.10
34965;DHT22;66671;51.982;5.794;2023-01-10T08:08:29;8.50;80.10
34965;DHT22;66671;51.982;5.794;2023-01-10T08:10:56;8.50;80.00
34965;DHT22;66671;51.982;5.794;2023-01-10T08:13:25;8.50;80.10
34965;DHT22;66671;51.982;5.794;2023-01-10T08:15:52;8.50;80.00
34965;DHT22;66671;51.982;5.794;2023-01-10T08:18:20;8.50;79.90
34965;DHT22;66671;51.982;5.794;2023-01-10T08:20:51;8.50;79.90
34965;DHT22;66671;51.982;5.794;2023-01-10T08:23:19;8.50;79.90
34965;DHT22;66671;51.982;5.794;2023-01-10T08:25:46;8.50;79.80
34965;DHT22;66671;51.982;5.794;2023-01-10T08:28:13;8.50;79.80
34965;DHT22;66671;51.982;5.794;2023-01-10T08:30:40;8.40;79.80
34965;DHT22;66671;51.982;5.794;2023-01-10T08:33:07;8.50;79.90
34965;DHT22;66671;51.982;5.794;2023-01-10T08:35:41;8.50;79.90
34965;DHT22;66671;51.982;5.794;2023-01-10T08:38:09;8.50;79.90
34965;DHT22;66671;51.982;5.794;2023-01-10T08:40:36;8.50;79.90
34965;DHT22;66671;51.982;5.794;2023-01-10T08:43:10;8.50;79.80
34965;DHT22;66671;51.982;5.794;2023-01-10T08:45:37;8.60;79.90
34965;DHT22;66671;51.982;5.794;2023-01-10T08:48:05;8.60;79.90
34965;DHT22;66671;51.982;5.794;2023-01-10T08:50:32;8.60;79.80
34965;DHT22;66671;51.982;5.794;2023-01-10T08:52:59;8.60;79.70
34965;DHT22;66671;51.982;5.794;2023-01-10T08:55:27;8.70;79.70
34965;DHT22;66671;51.982;5.794;2023-01-10T08:57:54;8.70;79.70
34965;DHT22;66671;51.982;5.794;2023-01-10T09:00:21;8.70;79.50
34965;DHT22;66671;51.982;5.794;2023-01-10T09:02:48;8.80;79.50
34965;DHT22;66671;51.982;5.794;2023-01-10T09:05:15;8.80;79.50
34965;DHT22;66671;51.982;5.794;2023-01-10T09:07:59;8.80;79.40
34965;DHT22;66671;51.982;5.794;2023-01-10T09:10:28;8.80;79.40
34965;DHT22;66671;51.982;5.794;2023-01-10T09:12:57;8.80;79.30
34965;DHT22;66671;51.982;5.794;2023-01-10T09:15:31;8.80;79.30
34965;DHT22;66671;51.982;5.794;2023-01-10T09:18:01;8.80;79.30
34965;DHT22;66671;51.982;5.794;2023-01-10T09:20:28;8.80;79.20
34965;DHT22;66671;51.982;5.794;2023-01-10T09:22:55;8.80;79.30
34965;DHT22;66671;51.982;5.794;2023-01-10T09:25:23;8.90;79.30
34965;DHT22;66671;51.982;5.794;2023-01-10T09:28:00;8.90;79.20
34965;DHT22;66671;51.982;5.794;2023-01-10T09:30:28;8.90;79.30
34965;DHT22;66671;51.982;5.794;2023-01-10T09:32:56;8.90;79.20
34965;DHT22;66671;51.982;5.794;2023-01-10T09:35:25;8.90;79.20
34965;DHT22;66671;51.982;5.794;2023-01-10T09:37:57;8.90;79.20
34965;DHT22;66671;51.982;5.794;2023-01-10T09:46:08;8.90;79.20
34965;DHT22;66671;51.982;5.794;2023-01-10T09:51:11;8.90;78.90
34965;DHT22;66671;51.982;5.794;2023-01-10T09:53:42;8.80;78.90
34965;DHT22;66671;51.982;5.794;2023-01-10T09:56:13;8.80;78.90
34965;DHT22;66671;51.982;5.794;2023-01-10T09:58:41;8.80;78.90
34965;DHT22;66671;51.982;5.794;2023-01-10T10:01:20;8.80;78.90
34965;DHT22;66671;51.982;5.794;2023-01-10T10:06:25;8.80;78.80
34965;DHT22;66671;51.982;5.794;2023-01-10T10:08:52;8.80;78.80
34965;DHT22;66671;51.982;5.794;2023-01-10T10:22:35;8.70;78.80
34965;DHT22;66671;51.982;5.794;2023-01-10T10:30:55;8.70;78.80
34965;DHT22;66671;51.982;5.794;2023-01-10T10:33:31;8.70;78.80
34965;DHT22;66671;51.982;5.794;2023-01-10T10:36:26;8.80;78.80
34965;DHT22;66671;51.982;5.794;2023-01-10T10:38:58;8.80;78.80
34965;DHT22;66671;51.982;5.794;2023-01-10T10:41:48;8.80;78.70
34965;DHT22;66671;51.982;5.794;2023-01-10T10:44:36;8.80;78.60
34965;DHT22;66671;51.982;5.794;2023-01-10T10:47:16;8.80;78.60
34965;DHT22;66671;51.982;5.794;2023-01-10T10:52:42;8.80;78.50
34965;DHT22;66671;51.982;5.794;2023-01-10T10:55:17;8.90;78.60
34965;DHT22;66671;51.982;5.794;2023-01-10T10:57:45;8.80;78.60
34965;DHT22;66671;51.982;5.794;2023-01-10T11:00:26;8.90;78.60
34965;DHT22;66671;51.982;5.794;2023-01-10T11:03:00;8.90;78.50
34965;DHT22;66671;51.982;5.794;2023-01-10T11:05:36;8.90;78.50
34965;DHT22;66671;51.982;5.794;2023-01-10T11:08:06;8.90;78.50
34965;DHT22;66671;51.982;5.794;2023-01-10T11:10:36;8.90;79.00
34965;DHT22;66671;51.982;5.794;2023-01-10T11:15:41;9.00;78.40
34965;DHT22;66671;51.982;5.794;2023-01-10T11:18:13;9.00;78.30
34965;DHT22;66671;51.982;5.794;2023-01-10T12:12:55;7.60;72.70
34965;DHT22;66671;51.982;5.794;2023-01-10T12:15:29;8.80;79.20
34965;DHT22;66671;51.982;5.794;2023-01-10T12:18:02;8.90;79.10
34965;DHT22;66671;51.982;5.794;2023-01-10T12:20:33;9.00;79.10
34965;DHT22;66671;51.982;5.794;2023-01-10T12:23:05;9.10;79.00
34965;DHT22;66671;51.982;5.794;2023-01-10T12:25:34;9.10;78.80
34965;DHT22;66671;51.982;5.794;2023-01-10T12:28:02;9.20;78.90
34965;DHT22;66671;51.982;5.794;2023-01-10T12:32:59;9.20;78.60
34965;DHT22;66671;51.982;5.794;2023-01-10T12:35:42;9.20;78.60
34965;DHT22;66671;51.982;5.794;2023-01-10T12:38:36;9.20;78.50
34965;DHT22;66671;51.982;5.794;2023-01-10T12:44:33;9.30;78.40
34965;DHT22;66671;51.982;5.794;2023-01-10T12:47:03;9.30;78.40
34965;DHT22;66671;51.982;5.794;2023-01-10T12:52:30;9.30;78.30
34965;DHT22;66671;51.982;5.794;2023-01-10T12:54:58;9.30;78.20
34965;DHT22;66671;51.982;5.794;2023-01-10T12:57:35;9.30;78.10
34965;DHT22;66671;51.982;5.794;2023-01-10T13:00:06;9.30;78.10
34965;DHT22;66671;51.982;5.794;2023-01-10T13:02:41;9.30;78.00
34965;DHT22;66671;51.982;5.794;2023-01-10T13:05:20;9.30;78.00
34965;DHT22;66671;51.982;5.794;2023-01-10T13:07:48;9.30;77.90
34965;DHT22;66671;51.982;5.794;2023-01-10T13:10:20;9.30;77.90
34965;DHT22;66671;51.982;5.794;2023-01-10T13:13:05;9.30;77.90
34965;DHT22;66671;51.982;5.794;2023-01-10T13:15:43;9.30;77.90
34965;DHT22;66671;51.982;5.794;2023-01-10T13:18:29;9.30;77.70
34965;DHT22;66671;51.982;5.794;2023-01-10T13:21:25;9.40;77.70
34965;DHT22;66671;51.982;5.794;2023-01-10T13:24:01;9.40;77.70
